createdAt,value
2018-09-06T00:01:11.171Z,18.97
2018-09-06T00:03:39.676Z,18.70
2018-09-06T00:06:08.142Z,17.70
2018-09-06T00:08:36.633Z,19.23
2018-09-06T00:11:05.122Z,19.70
2018-09-06T00:13:33.632Z,17.77
2018-09-06T00:16:02.337Z,19.00
2018-09-06T00:18:30.830Z,17.80
2018-09-06T00:20:59.279Z,19.80
2018-09-06T00:23:27.891Z,18.97
2018-09-06T00:25:56.378Z,19.30
2018-09-06T00:28:24.879Z,19.17
2018-09-06T00:30:53.638Z,19.33
2018-09-06T00:33:22.128Z,19.50
2018-09-06T00:35:50.630Z,18.20
2018-09-06T00:38:19.114Z,19.40
2018-09-06T00:40:47.904Z,20.97
2018-09-06T00:43:16.423Z,19.73
2018-09-06T00:45:44.945Z,19.47
2018-09-06T00:48:13.701Z,19.70
2018-09-06T00:50:42.233Z,20.03
2018-09-06T00:53:10.760Z,20.77
2018-09-06T00:55:39.241Z,19.60
2018-09-06T00:58:08.100Z,19.27
2018-09-06T01:00:36.658Z,18.67
2018-09-06T01:03:05.249Z,19.07
2018-09-06T01:05:34.332Z,19.57
2018-09-06T01:08:02.845Z,20.30
2018-09-06T01:10:31.344Z,21.23
2018-09-06T01:12:59.854Z,21.43
2018-09-06T01:15:28.345Z,20.67
2018-09-06T01:17:56.901Z,20.17
2018-09-06T01:20:25.607Z,20.30
2018-09-06T01:22:54.112Z,20.80
2018-09-06T01:25:22.598Z,20.00
2018-09-06T01:27:51.109Z,19.57
2018-09-06T01:30:19.617Z,21.07
2018-09-06T01:32:48.105Z,19.20
2018-09-06T01:35:16.799Z,21.33
2018-09-06T01:37:45.265Z,20.70
2018-09-06T01:40:13.797Z,21.10
2018-09-06T01:42:42.700Z,21.40
2018-09-06T01:45:11.226Z,20.53
2018-09-06T01:47:39.705Z,21.20
2018-09-06T01:50:08.254Z,21.00
2018-09-06T01:52:36.745Z,22.00
2018-09-06T01:55:05.258Z,19.97
2018-09-06T01:57:33.737Z,21.00
2018-09-06T02:00:02.499Z,21.77
2018-09-06T02:02:31.048Z,22.23
2018-09-06T02:04:59.554Z,23.13
2018-09-06T02:07:28.265Z,20.93
2018-09-06T02:09:56.788Z,21.63
2018-09-06T02:12:25.472Z,24.70
2018-09-06T02:14:53.940Z,21.53
2018-09-06T02:17:22.692Z,23.17
2018-09-06T02:19:51.138Z,20.67
2018-09-06T02:22:19.649Z,23.47
2018-09-06T02:24:48.112Z,21.57
2018-09-06T02:27:16.601Z,24.83
2018-09-06T02:29:45.278Z,22.53
2018-09-06T02:32:13.797Z,23.37
2018-09-06T02:34:42.269Z,22.30
2018-09-06T02:37:10.754Z,22.53
2018-09-06T02:39:39.209Z,23.10
2018-09-06T02:42:07.686Z,24.47
2018-09-06T02:44:36.196Z,24.60
2018-09-06T02:47:05.545Z,23.13
2018-09-06T02:49:39.357Z,23.60
2018-09-06T02:52:07.850Z,24.10
2018-09-06T02:54:36.405Z,23.37
2018-09-06T02:57:04.927Z,24.50
2018-09-06T02:59:33.392Z,24.27
2018-09-06T03:02:01.900Z,25.83
2018-09-06T03:04:30.433Z,25.30
2018-09-06T03:06:58.920Z,23.50
2018-09-06T03:09:27.442Z,24.93
2018-09-06T03:12:01.586Z,23.10
2018-09-06T03:14:30.078Z,25.37
2018-09-06T03:16:58.973Z,23.77
2018-09-06T03:19:27.822Z,24.43
2018-09-06T03:21:56.349Z,23.80
2018-09-06T03:24:24.861Z,23.60
2018-09-06T03:26:53.342Z,25.17
2018-09-06T03:29:21.837Z,24.37
2018-09-06T03:31:50.356Z,24.60
2018-09-06T03:34:18.819Z,25.83
2018-09-06T03:36:47.292Z,25.80
2018-09-06T03:39:15.760Z,24.20
2018-09-06T03:41:44.226Z,24.83
2018-09-06T03:44:12.929Z,25.00
2018-09-06T03:46:41.405Z,25.70
2018-09-06T03:49:09.886Z,25.77
2018-09-06T03:51:38.370Z,26.30
2018-09-06T03:54:07.067Z,26.07
2018-09-06T03:56:35.562Z,26.73
2018-09-06T03:59:04.053Z,27.47
2018-09-06T04:01:32.533Z,26.23
2018-09-06T04:04:01.029Z,27.60
2018-09-06T04:06:29.510Z,27.83
2018-09-06T04:08:58.001Z,26.97
2018-09-06T04:11:26.485Z,27.40
2018-09-06T04:13:54.980Z,28.83
2018-09-06T04:16:23.451Z,28.03
2018-09-06T04:18:51.933Z,28.07
2018-09-06T04:21:20.410Z,26.53
2018-09-06T04:23:48.961Z,27.17
2018-09-06T04:26:17.837Z,27.83
2018-09-06T04:28:46.327Z,25.90
2018-09-06T04:31:14.805Z,27.53
2018-09-06T04:33:43.358Z,26.70
2018-09-06T04:36:11.836Z,26.17
2018-09-06T04:38:40.297Z,28.93
2018-09-06T04:41:08.829Z,24.90
2018-09-06T04:43:37.338Z,24.33
2018-09-06T04:46:05.894Z,26.70
2018-09-06T04:48:34.397Z,27.00
2018-09-06T04:51:02.878Z,28.20
2018-09-06T04:53:31.369Z,28.47
2018-09-06T04:55:59.875Z,26.47
2018-09-06T04:58:28.378Z,26.27
2018-09-06T05:00:57.090Z,25.53
2018-09-06T05:03:25.566Z,27.17
2018-09-06T05:05:54.070Z,26.10
2018-09-06T05:08:22.557Z,24.87
2018-09-06T05:10:51.045Z,23.97
2018-09-06T05:13:19.765Z,23.07
2018-09-06T05:15:48.275Z,23.97
2018-09-06T05:18:16.793Z,20.50
2018-09-06T05:20:45.326Z,18.73
2018-09-06T05:23:13.798Z,19.47
2018-09-06T05:25:42.274Z,19.30
2018-09-06T05:28:10.962Z,19.00
2018-09-06T05:30:39.520Z,18.57
2018-09-06T05:33:07.947Z,19.07
2018-09-06T05:35:36.446Z,19.23
2018-09-06T05:38:04.923Z,19.23
2018-09-06T05:40:33.630Z,17.67
2018-09-06T05:43:02.088Z,18.03
2018-09-06T05:45:30.550Z,17.90
2018-09-06T05:48:00.006Z,18.87
2018-09-06T05:50:30.181Z,16.73
2018-09-06T05:52:59.826Z,18.37
2018-09-06T05:55:28.309Z,18.40
2018-09-06T05:57:56.851Z,20.13
2018-09-06T06:00:30.732Z,17.87
2018-09-06T06:03:01.075Z,17.80
2018-09-06T06:05:29.750Z,19.67
2018-09-06T06:08:09.574Z,16.90
2018-09-06T06:10:38.053Z,17.70
2018-09-06T06:13:06.539Z,19.57
2018-09-06T06:15:35.058Z,20.17
2018-09-06T06:18:03.622Z,19.20
2018-09-06T06:20:32.110Z,18.50
2018-09-06T06:23:00.929Z,18.60
2018-09-06T06:25:29.976Z,19.03
2018-09-06T06:27:58.491Z,18.80
2018-09-06T06:30:27.078Z,20.30
2018-09-06T06:32:55.540Z,17.63
2018-09-06T06:35:24.226Z,18.17
2018-09-06T06:37:52.642Z,17.17
2018-09-06T06:40:21.157Z,17.93
2018-09-06T06:42:49.850Z,16.00
2018-09-06T06:45:18.327Z,16.00
2018-09-06T06:47:46.865Z,16.30
2018-09-06T06:50:15.438Z,15.43
2018-09-06T06:52:43.888Z,16.57
2018-09-06T06:55:12.366Z,16.90
2018-09-06T06:57:41.086Z,15.93
2018-09-06T07:00:09.594Z,16.20
2018-09-06T07:02:38.096Z,16.13
2018-09-06T07:05:06.577Z,16.70
2018-09-06T07:07:35.089Z,17.43
2018-09-06T07:10:03.618Z,17.23
2018-09-06T07:12:32.442Z,15.83
2018-09-06T07:15:01.138Z,17.00
2018-09-06T07:17:29.590Z,15.47
2018-09-06T07:19:58.085Z,15.53
2018-09-06T07:22:26.573Z,15.47
2018-09-06T07:24:55.051Z,16.17
2018-09-06T07:27:23.498Z,15.97
2018-09-06T07:29:52.021Z,15.07
2018-09-06T07:32:20.531Z,15.20
2018-09-06T07:34:49.002Z,15.33
2018-09-06T07:37:17.482Z,13.97
2018-09-06T07:39:46.017Z,14.10
2018-09-06T07:42:14.494Z,14.60
2018-09-06T07:44:42.956Z,15.50
2018-09-06T07:47:11.519Z,15.10
2018-09-06T07:49:40.196Z,14.50
2018-09-06T07:52:08.802Z,15.00
2018-09-06T07:54:37.230Z,14.90
2018-09-06T07:57:05.727Z,14.73
2018-09-06T07:59:34.196Z,13.40
2018-09-06T08:02:02.900Z,15.83
2018-09-06T08:04:31.364Z,15.47
2018-09-06T08:06:59.812Z,14.40
2018-09-06T08:09:28.294Z,14.23
2018-09-06T08:11:56.828Z,14.33
2018-09-06T08:14:25.299Z,14.30
2018-09-06T08:16:54.040Z,14.33
2018-09-06T08:19:22.537Z,14.57
2018-09-06T08:21:51.015Z,13.90
2018-09-06T08:24:19.529Z,13.47
2018-09-06T08:26:47.958Z,14.40
2018-09-06T08:29:16.418Z,13.30
2018-09-06T08:31:44.937Z,14.40
2018-09-06T08:34:13.421Z,12.43
2018-09-06T08:36:41.960Z,13.27
2018-09-06T08:39:11.358Z,13.40
2018-09-06T08:41:40.469Z,12.90
2018-09-06T08:44:09.325Z,13.73
2018-09-06T08:46:37.813Z,14.13
2018-09-06T08:49:06.460Z,13.30
2018-09-06T08:51:34.965Z,13.27
2018-09-06T08:54:03.502Z,13.30
2018-09-06T08:56:31.967Z,13.73
2018-09-06T08:59:00.473Z,13.60
2018-09-06T09:01:34.206Z,13.30
2018-09-06T09:04:02.694Z,12.23
2018-09-06T09:06:31.201Z,11.30
2018-09-06T09:08:59.694Z,11.83
2018-09-06T09:11:28.189Z,13.70
2018-09-06T09:13:56.719Z,13.43
2018-09-06T09:16:25.263Z,13.60
2018-09-06T09:18:53.759Z,13.80
2018-09-06T09:21:22.252Z,11.07
2018-09-06T09:23:50.731Z,11.23
2018-09-06T09:26:19.244Z,11.60
2018-09-06T09:28:47.768Z,10.90
2018-09-06T09:31:16.274Z,11.00
2018-09-06T09:33:45.281Z,10.70
2018-09-06T09:36:13.804Z,10.23
2018-09-06T09:38:42.525Z,10.80
2018-09-06T09:41:11.069Z,11.03
2018-09-06T09:43:39.565Z,10.67
2018-09-06T09:48:35.709Z,10.87
2018-09-06T09:51:04.174Z,11.03
2018-09-06T09:53:32.665Z,10.90
2018-09-06T09:56:01.108Z,11.73
2018-09-06T09:58:29.816Z,11.77
2018-09-06T10:00:58.310Z,11.13
2018-09-06T10:03:32.146Z,11.90
2018-09-06T10:06:05.926Z,11.77
2018-09-06T10:08:39.786Z,10.73
2018-09-06T10:11:08.289Z,10.70
2018-09-06T10:13:36.979Z,9.83
2018-09-06T10:16:05.523Z,10.80
2018-09-06T10:18:34.090Z,11.20
2018-09-06T10:21:02.573Z,10.87
2018-09-06T10:23:31.110Z,10.13
2018-09-06T10:26:00.826Z,9.03
2018-09-06T10:28:29.321Z,9.57
2018-09-06T10:30:57.774Z,10.33
2018-09-06T10:33:26.501Z,9.97
2018-09-06T10:35:55.005Z,9.40
2018-09-06T10:38:23.497Z,9.20
2018-09-06T10:40:51.985Z,10.10
2018-09-06T10:43:20.464Z,9.57
2018-09-06T10:45:48.970Z,9.10
2018-09-06T10:48:17.504Z,9.57
2018-09-06T10:50:46.017Z,10.63
2018-09-06T10:53:14.778Z,9.93
2018-09-06T10:55:43.346Z,10.17
2018-09-06T10:58:11.822Z,9.97
2018-09-06T11:00:40.722Z,8.50
2018-09-06T11:03:09.205Z,7.87
2018-09-06T11:05:37.717Z,8.40
2018-09-06T11:08:06.363Z,8.13
2018-09-06T11:10:34.782Z,6.80
2018-09-06T11:13:03.343Z,6.70
2018-09-06T11:15:31.822Z,7.63
2018-09-06T11:18:00.316Z,6.70
2018-09-06T11:20:28.794Z,5.97
2018-09-06T11:22:57.289Z,5.80
2018-09-06T11:25:25.769Z,5.20
2018-09-06T11:27:54.259Z,5.90
2018-09-06T11:30:22.806Z,5.13
2018-09-06T11:32:51.277Z,5.47
2018-09-06T11:35:19.741Z,5.10
2018-09-06T11:37:48.195Z,6.67
2018-09-06T11:40:16.744Z,6.33
2018-09-06T11:42:45.213Z,6.43
2018-09-06T11:45:13.673Z,5.40
2018-09-06T11:47:42.209Z,5.50
2018-09-06T11:50:10.672Z,5.00
2018-09-06T11:52:39.189Z,5.30
2018-09-06T11:55:07.757Z,5.90
2018-09-06T11:57:36.205Z,4.90
2018-09-06T12:00:05.006Z,5.77
2018-09-06T12:02:33.486Z,5.10
2018-09-06T12:05:02.005Z,5.00
2018-09-06T12:07:30.514Z,5.97
2018-09-06T12:09:59.064Z,6.30
2018-09-06T12:12:27.541Z,7.37
2018-09-06T12:14:56.039Z,11.37
2018-09-06T12:17:24.528Z,8.40
2018-09-06T12:19:53.415Z,8.60
2018-09-06T12:22:21.921Z,9.20
2018-09-06T12:24:50.713Z,9.43
2018-09-06T12:27:19.198Z,11.77
2018-09-06T12:29:47.679Z,10.30
2018-09-06T12:32:16.265Z,7.47
2018-09-06T12:34:44.826Z,7.00
2018-09-06T12:37:14.434Z,8.67
2018-09-06T12:39:44.434Z,8.23
2018-09-06T12:42:13.879Z,7.60
2018-09-06T12:44:45.451Z,8.20
2018-09-06T12:47:14.053Z,8.30
2018-09-06T12:49:42.627Z,8.43
2018-09-06T12:52:11.075Z,8.50
2018-09-06T12:54:39.577Z,9.43
2018-09-06T12:57:08.089Z,10.10
2018-09-06T12:59:36.584Z,9.07
2018-09-06T13:02:05.103Z,9.20
2018-09-06T13:04:33.624Z,9.10
2018-09-06T13:07:02.160Z,9.27
2018-09-06T13:09:30.670Z,8.63
2018-09-06T13:11:59.166Z,9.17
2018-09-06T13:14:27.824Z,8.93
2018-09-06T13:16:56.404Z,9.53
2018-09-06T13:19:24.940Z,9.53
2018-09-06T13:21:53.468Z,9.63
2018-09-06T13:24:21.964Z,9.47
2018-09-06T13:26:51.044Z,9.30
2018-09-06T13:29:19.540Z,9.20
2018-09-06T13:31:48.013Z,9.77
2018-09-06T13:34:19.442Z,9.47
2018-09-06T13:36:48.741Z,8.63
2018-09-06T13:39:17.200Z,8.17
2018-09-06T13:41:48.402Z,9.20
2018-09-06T13:44:17.894Z,8.90
2018-09-06T13:46:46.386Z,10.33
2018-09-06T13:49:14.860Z,9.20
2018-09-06T13:51:43.400Z,10.10
2018-09-06T13:54:11.866Z,8.80
2018-09-06T13:56:40.362Z,8.07
2018-09-06T13:59:08.903Z,9.30
2018-09-06T14:01:37.362Z,10.17
2018-09-06T14:04:05.924Z,8.80
2018-09-06T14:06:34.469Z,8.30
2018-09-06T14:09:03.015Z,8.67
2018-09-06T14:11:31.494Z,8.10
2018-09-06T14:13:59.953Z,9.40
2018-09-06T14:16:28.464Z,9.37
2018-09-06T14:18:56.965Z,8.10
2018-09-06T14:21:26.430Z,9.47
2018-09-06T14:23:55.039Z,8.90
2018-09-06T14:26:23.553Z,8.47
2018-09-06T14:28:52.039Z,10.03
2018-09-06T14:31:21.517Z,10.00
2018-09-06T14:33:50.093Z,9.13
2018-09-06T14:36:19.082Z,10.13
2018-09-06T14:38:47.644Z,10.50
2018-09-06T14:41:16.241Z,10.27
2018-09-06T14:43:44.793Z,11.07
2018-09-06T14:46:13.255Z,11.30
2018-09-06T14:48:41.737Z,11.20
2018-09-06T14:51:10.186Z,10.50
2018-09-06T14:53:38.889Z,11.20
2018-09-06T14:56:08.377Z,11.00
2018-09-06T14:58:38.061Z,10.73
2018-09-06T15:01:06.601Z,11.67
2018-09-06T15:03:35.066Z,11.73
2018-09-06T15:06:03.575Z,8.73
2018-09-06T15:08:32.047Z,9.70
2018-09-06T15:11:00.572Z,10.60
2018-09-06T15:13:29.075Z,10.97
2018-09-06T15:15:57.520Z,9.40
2018-09-06T15:18:25.985Z,9.90
2018-09-06T15:20:54.531Z,11.80
2018-09-06T15:23:23.076Z,13.07
2018-09-06T15:25:51.554Z,12.90
2018-09-06T15:28:20.266Z,12.00
2018-09-06T15:30:48.987Z,13.00
2018-09-06T15:33:17.448Z,11.23
2018-09-06T15:35:45.957Z,10.20
2018-09-06T15:38:14.446Z,12.00
2018-09-06T15:40:42.962Z,12.03
2018-09-06T15:43:11.422Z,12.47
2018-09-06T15:45:39.892Z,11.53
2018-09-06T15:48:08.843Z,11.70
2018-09-06T15:50:37.363Z,11.87
2018-09-06T15:53:05.929Z,12.77
2018-09-06T15:55:34.404Z,12.50
2018-09-06T15:58:02.897Z,12.40
2018-09-06T16:00:31.357Z,12.43
2018-09-06T16:02:59.834Z,7.90
2018-09-06T16:05:28.294Z,9.50
2018-09-06T16:07:56.767Z,11.10
2018-09-06T16:10:25.386Z,9.67
2018-09-06T16:12:53.862Z,10.30
2018-09-06T16:15:22.322Z,7.50
2018-09-06T16:17:50.777Z,7.07
2018-09-06T16:20:19.489Z,8.37
2018-09-06T16:22:48.010Z,9.30
2018-09-06T16:25:16.685Z,10.03
2018-09-06T16:27:45.593Z,9.30
2018-09-06T16:30:14.156Z,8.87
2018-09-06T16:32:42.658Z,8.50
2018-09-06T16:35:11.136Z,9.00
2018-09-06T16:37:39.579Z,9.17
2018-09-06T16:40:08.091Z,10.97
2018-09-06T16:42:36.974Z,9.00
2018-09-06T16:45:05.511Z,8.80
2018-09-06T16:47:33.984Z,8.30
2018-09-06T16:50:02.530Z,8.80
2018-09-06T16:52:31.108Z,8.77
2018-09-06T16:54:59.551Z,8.83
2018-09-06T16:57:28.015Z,10.30
2018-09-06T17:00:10.263Z,10.27
2018-09-06T17:02:38.949Z,11.40
2018-09-06T17:05:07.484Z,12.20
2018-09-06T17:07:36.009Z,11.90
2018-09-06T17:10:04.634Z,11.30
2018-09-06T17:12:33.170Z,10.10
2018-09-06T17:15:01.655Z,10.80
2018-09-06T17:17:30.202Z,9.80
2018-09-06T17:19:58.667Z,10.53
2018-09-06T17:22:27.807Z,9.77
2018-09-06T17:24:56.250Z,8.83
2018-09-06T17:27:24.706Z,8.37
2018-09-06T17:29:53.699Z,7.90
2018-09-06T17:32:22.388Z,8.73
2018-09-06T17:34:50.818Z,8.70
2018-09-06T17:37:19.288Z,11.43
2018-09-06T17:39:47.797Z,11.30
2018-09-06T17:42:16.333Z,12.50
2018-09-06T17:44:44.878Z,12.63
2018-09-06T17:47:13.361Z,13.00
2018-09-06T17:49:41.893Z,12.73
2018-09-06T17:52:10.733Z,12.40
2018-09-06T17:54:39.213Z,12.90
2018-09-06T17:57:07.699Z,12.20
2018-09-06T17:59:36.148Z,13.00
2018-09-06T18:02:04.834Z,11.37
2018-09-06T18:04:33.292Z,13.10
2018-09-06T18:07:01.781Z,14.33
2018-09-06T18:09:30.306Z,14.20
2018-09-06T18:11:58.842Z,14.07
2018-09-06T18:14:27.357Z,15.00
2018-09-06T18:16:56.673Z,15.27
2018-09-06T18:19:25.197Z,15.80
2018-09-06T18:21:53.665Z,16.83
2018-09-06T18:24:22.157Z,15.63
2018-09-06T18:26:50.635Z,14.93
2018-09-06T18:29:19.141Z,17.10
2018-09-06T18:31:47.691Z,17.20
2018-09-06T18:34:16.190Z,16.63
2018-09-06T18:36:44.658Z,17.67
2018-09-06T18:39:13.204Z,15.00
2018-09-06T18:41:41.669Z,15.37
2018-09-06T18:44:10.237Z,16.73
2018-09-06T18:46:38.671Z,16.97
2018-09-06T18:49:07.405Z,14.60
2018-09-06T18:51:35.903Z,15.70
2018-09-06T18:54:04.413Z,16.40
2018-09-06T18:56:32.941Z,15.53
2018-09-06T18:59:01.930Z,15.87
2018-09-06T19:01:30.445Z,15.17
2018-09-06T19:05:18.643Z,15.83
2018-09-06T19:07:47.171Z,16.00
2018-09-06T19:10:15.683Z,15.63
2018-09-06T19:12:44.177Z,17.33
2018-09-06T19:15:12.644Z,16.40
2018-09-06T19:17:41.352Z,16.00
2018-09-06T19:20:10.070Z,15.87
2018-09-06T19:22:38.577Z,16.17
2018-09-06T19:25:07.096Z,14.80
2018-09-06T19:27:35.618Z,15.73
2018-09-06T19:30:04.231Z,17.50
2018-09-06T19:32:32.966Z,16.03
2018-09-06T19:35:01.462Z,15.77
2018-09-06T19:37:29.962Z,15.53
2018-09-06T19:39:58.499Z,13.23
2018-09-06T19:42:26.985Z,15.30
2018-09-06T19:44:55.511Z,13.30
2018-09-06T19:47:23.977Z,14.33
2018-09-06T19:49:53.046Z,13.93
2018-09-06T19:52:21.835Z,14.37
2018-09-06T19:54:50.722Z,13.00
2018-09-06T19:57:19.283Z,15.20
2018-09-06T19:59:48.073Z,16.17
2018-09-06T20:02:16.525Z,14.73
2018-09-06T20:04:45.036Z,15.40
2018-09-06T20:07:13.576Z,13.97
2018-09-06T20:09:42.055Z,14.80
2018-09-06T20:12:10.570Z,14.67
2018-09-06T20:14:39.067Z,14.20
2018-09-06T20:17:07.598Z,16.33
2018-09-06T20:19:36.081Z,15.43
2018-09-06T20:22:04.670Z,15.53
2018-09-06T20:24:33.382Z,15.97
2018-09-06T20:27:01.820Z,15.47
2018-09-06T20:29:30.300Z,14.80
2018-09-06T20:31:58.798Z,15.37
2018-09-06T20:34:27.302Z,14.47
2018-09-06T20:36:55.988Z,14.63
2018-09-06T20:39:24.483Z,15.67
2018-09-06T20:41:53.024Z,14.23
2018-09-06T20:44:22.002Z,16.03
2018-09-06T20:46:50.512Z,13.47
2018-09-06T20:49:19.029Z,13.67
2018-09-06T20:51:47.546Z,12.83
2018-09-06T20:54:16.081Z,14.33
2018-09-06T20:56:44.537Z,13.33
2018-09-06T20:59:13.018Z,13.87
2018-09-06T21:01:41.757Z,14.60
2018-09-06T21:04:10.257Z,12.73
2018-09-06T21:06:38.957Z,13.07
2018-09-06T21:09:08.208Z,13.63
2018-09-06T21:11:36.729Z,13.10
2018-09-06T21:14:05.505Z,13.77
2018-09-06T21:16:34.082Z,15.20
2018-09-06T21:19:02.839Z,13.40
2018-09-06T21:21:31.338Z,14.33
2018-09-06T21:23:59.833Z,14.50
2018-09-06T21:26:28.323Z,17.67
2018-09-06T21:28:56.810Z,17.53
2018-09-06T21:31:25.314Z,16.20
2018-09-06T21:33:53.779Z,16.17
2018-09-06T21:36:23.283Z,17.07
2018-09-06T21:38:51.836Z,16.47
2018-09-06T21:41:20.345Z,15.90
2018-09-06T21:43:48.821Z,15.83
2018-09-06T21:46:17.329Z,15.67
2018-09-06T21:48:45.794Z,14.30
2018-09-06T21:51:14.358Z,13.60
2018-09-06T21:53:42.829Z,14.03
2018-09-06T21:56:11.326Z,13.60
2018-09-06T21:58:40.037Z,14.70
2018-09-06T22:01:08.526Z,13.70
2018-09-06T22:03:42.309Z,13.87
2018-09-06T22:06:10.761Z,12.80
2018-09-06T22:08:39.289Z,13.40
2018-09-06T22:11:07.769Z,13.10
2018-09-06T22:13:36.257Z,14.33
2018-09-06T22:16:05.726Z,14.70
2018-09-06T22:18:34.258Z,12.93
2018-09-06T22:21:02.717Z,13.90
2018-09-06T22:23:31.284Z,13.77
2018-09-06T22:26:00.064Z,13.60
2018-09-06T22:28:28.579Z,13.43
2018-09-06T22:30:57.057Z,13.10
2018-09-06T22:33:25.554Z,13.20
2018-09-06T22:35:54.033Z,13.33
2018-09-06T22:38:22.525Z,12.83
2018-09-06T22:40:51.011Z,13.40
2018-09-06T22:43:19.590Z,13.50
2018-09-06T22:45:48.065Z,13.20
2018-09-06T22:48:16.534Z,14.63
2018-09-06T22:50:45.049Z,12.63
2018-09-06T22:53:13.617Z,12.87
2018-09-06T22:55:42.127Z,13.30
2018-09-06T22:58:10.609Z,12.50
2018-09-06T23:00:39.114Z,12.30
2018-09-06T23:03:12.819Z,11.93
2018-09-06T23:05:41.540Z,11.83
2018-09-06T23:08:10.010Z,12.83
2018-09-06T23:10:38.498Z,13.70
2018-09-06T23:13:07.013Z,13.77
2018-09-06T23:15:35.501Z,12.50
2018-09-06T23:18:04.018Z,12.27
2018-09-06T23:20:32.470Z,13.07
2018-09-06T23:23:01.513Z,13.83
2018-09-06T23:25:29.982Z,12.67
2018-09-06T23:27:58.484Z,14.10
2018-09-06T23:30:26.969Z,13.90
2018-09-06T23:32:55.433Z,14.43
2018-09-06T23:35:23.903Z,13.20
2018-09-06T23:37:52.370Z,14.00
2018-09-06T23:40:20.850Z,13.67
2018-09-06T23:42:49.318Z,13.50
2018-09-06T23:45:17.830Z,13.03
2018-09-06T23:47:46.292Z,14.20
2018-09-06T23:50:14.810Z,15.50
2018-09-06T23:52:43.653Z,15.17
2018-09-06T23:55:12.187Z,14.67
2018-09-06T23:57:40.682Z,14.03
